Acton, Massachusetts
Current Conditions -  °F | °C
As of 12:56 PM on Wednesday 28 Jan 2015 (Local Time) from KBED Reporting Station
Clear Clear  
Wind Chill:   Ceiling: Unl
Heat Index: 20°   Visibility: 10mi
Dew Point:   Wind: 13mph
Humidity: 52%   Direction: 310°NW
Pressure: 29.96"   Gusts: 17mph
Location:  42.49°N, 71.43°W
Report Text: KBED 281756Z 31011G15KT 10SM CLR M07/M15 A2996 RMK AO2 SLP163 T10671150 11067 21111 51002
Loading
Personal Weather Stations






























Interactive Weather Map New forecast layout! Learn more

10-Day Weather Forecast

Advertisements
Track Severe Weather on mobile